sensor_id;sensor_type;location;lat;lon;timestamp;pressure;altitude;pressure_sealevel;temperature;humidity
38616;BME280;24370;51.986;4.666;2023-06-22T00:01:09;102027.09;;;30.41;37.64
38616;BME280;24370;51.986;4.666;2023-06-22T00:03:35;102041.75;;;30.50;37.98
38616;BME280;24370;51.986;4.666;2023-06-22T00:06:00;102031.50;;;30.66;36.87
38616;BME280;24370;51.986;4.666;2023-06-22T00:08:26;102029.97;;;30.86;36.93
38616;BME280;24370;51.986;4.666;2023-06-22T00:10:51;102045.22;;;30.39;37.82
38616;BME280;24370;51.986;4.666;2023-06-22T00:13:17;102027.09;;;30.41;37.73
38616;BME280;24370;51.986;4.666;2023-06-22T00:15:43;102032.31;;;30.55;37.15
38616;BME280;24370;51.986;4.666;2023-06-22T00:18:09;102027.03;;;30.89;36.82
38616;BME280;24370;51.986;4.666;2023-06-22T00:20:36;102019.59;;;30.33;37.97
38616;BME280;24370;51.986;4.666;2023-06-22T00:23:05;102023.09;;;30.22;37.92
38616;BME280;24370;51.986;4.666;2023-06-22T00:25:38;102027.28;;;30.26;37.91
38616;BME280;24370;51.986;4.666;2023-06-22T00:28:07;102019.91;;;30.17;38.17
38616;BME280;24370;51.986;4.666;2023-06-22T00:30:33;102017.38;;;30.03;38.65
38616;BME280;24370;51.986;4.666;2023-06-22T00:32:59;102011.25;;;30.01;38.28
38616;BME280;24370;51.986;4.666;2023-06-22T00:35:25;102003.56;;;30.43;37.71
38616;BME280;24370;51.986;4.666;2023-06-22T00:37:58;102002.34;;;29.87;38.56
38616;BME280;24370;51.986;4.666;2023-06-22T00:40:31;102004.03;;;29.51;39.64
38616;BME280;24370;51.986;4.666;2023-06-22T00:42:57;102005.00;;;29.50;39.62
38616;BME280;24370;51.986;4.666;2023-06-22T00:45:23;101999.84;;;28.96;40.51
38616;BME280;24370;51.986;4.666;2023-06-22T00:47:55;101998.34;;;29.30;39.90
38616;BME280;24370;51.986;4.666;2023-06-22T00:50:22;101996.63;;;29.16;40.46
38616;BME280;24370;51.986;4.666;2023-06-22T00:52:51;102001.44;;;28.72;41.29
38616;BME280;24370;51.986;4.666;2023-06-22T00:55:18;102003.50;;;29.46;39.74
38616;BME280;24370;51.986;4.666;2023-06-22T00:57:47;102000.72;;;29.35;39.26
38616;BME280;24370;51.986;4.666;2023-06-22T01:00:13;101998.34;;;29.17;40.19
38616;BME280;24370;51.986;4.666;2023-06-22T01:02:40;101998.34;;;29.17;40.18
38616;BME280;24370;51.986;4.666;2023-06-22T01:05:06;101998.88;;;29.22;40.06
38616;BME280;24370;51.986;4.666;2023-06-22T01:07:42;101991.56;;;29.87;38.89
38616;BME280;24370;51.986;4.666;2023-06-22T01:10:29;101992.72;;;29.46;39.43
38616;BME280;24370;51.986;4.666;2023-06-22T01:15:51;101993.34;;;29.50;39.43
38616;BME280;24370;51.986;4.666;2023-06-22T01:18:19;101988.47;;;29.31;40.04
38616;BME280;24370;51.986;4.666;2023-06-22T01:20:46;101986.50;;;29.33;39.66
38616;BME280;24370;51.986;4.666;2023-06-22T01:23:29;101977.47;;;29.71;38.94
38616;BME280;24370;51.986;4.666;2023-06-22T01:29:04;101991.66;;;29.36;39.42
38616;BME280;24370;51.986;4.666;2023-06-22T01:31:31;101988.13;;;28.97;40.41
38616;BME280;24370;51.986;4.666;2023-06-22T01:34:00;101992.69;;;28.56;41.27
38616;BME280;24370;51.986;4.666;2023-06-22T01:36:27;101994.03;;;28.89;40.46
38616;BME280;24370;51.986;4.666;2023-06-22T01:38:53;101999.22;;;29.05;40.66
38616;BME280;24370;51.986;4.666;2023-06-22T01:41:20;101998.34;;;29.43;39.66
38616;BME280;24370;51.986;4.666;2023-06-22T01:43:46;101996.19;;;29.09;39.97
38616;BME280;24370;51.986;4.666;2023-06-22T01:46:13;101986.38;;;28.70;41.01
38616;BME280;24370;51.986;4.666;2023-06-22T01:48:39;101992.22;;;28.89;40.65
38616;BME280;24370;51.986;4.666;2023-06-22T01:51:05;101983.09;;;29.31;39.78
38616;BME280;24370;51.986;4.666;2023-06-22T01:53:30;101994.91;;;28.89;40.43
38616;BME280;24370;51.986;4.666;2023-06-22T01:55:56;101984.53;;;29.48;39.07
38616;BME280;24370;51.986;4.666;2023-06-22T01:58:26;101987.50;;;29.06;40.33
38616;BME280;24370;51.986;4.666;2023-06-22T02:01:00;101979.94;;;29.24;39.91
38616;BME280;24370;51.986;4.666;2023-06-22T02:03:36;101984.78;;;29.32;39.96
38616;BME280;24370;51.986;4.666;2023-06-22T02:06:16;101980.25;;;29.19;39.67
38616;BME280;24370;51.986;4.666;2023-06-22T02:08:55;101977.44;;;29.21;39.67
38616;BME280;24370;51.986;4.666;2023-06-22T02:11:23;101980.16;;;28.82;40.31
38616;BME280;24370;51.986;4.666;2023-06-22T02:13:51;101979.38;;;29.19;39.75
38616;BME280;24370;51.986;4.666;2023-06-22T02:16:17;101976.94;;;29.28;39.88
38616;BME280;24370;51.986;4.666;2023-06-22T02:18:50;101983.59;;;29.23;40.00
38616;BME280;24370;51.986;4.666;2023-06-22T02:21:19;101980.69;;;28.87;40.74
38616;BME280;24370;51.986;4.666;2023-06-22T02:23:45;101977.03;;;29.14;40.42
38616;BME280;24370;51.986;4.666;2023-06-22T02:26:11;101968.41;;;29.09;40.57
38616;BME280;24370;51.986;4.666;2023-06-22T02:28:37;101970.91;;;28.99;40.33
38616;BME280;24370;51.986;4.666;2023-06-22T02:31:02;101963.47;;;28.64;41.53
38616;BME280;24370;51.986;4.666;2023-06-22T02:33:28;101958.75;;;28.93;40.87
38616;BME280;24370;51.986;4.666;2023-06-22T02:35:53;101959.28;;;28.73;41.46
38616;BME280;24370;51.986;4.666;2023-06-22T02:38:19;101956.44;;;28.08;42.16
38616;BME280;24370;51.986;4.666;2023-06-22T02:40:45;101962.97;;;28.32;42.21
38616;BME280;24370;51.986;4.666;2023-06-22T02:43:11;101960.41;;;28.43;42.00
38616;BME280;24370;51.986;4.666;2023-06-22T02:45:36;101960.69;;;28.91;40.98
38616;BME280;24370;51.986;4.666;2023-06-22T02:48:01;101968.66;;;28.80;41.04
38616;BME280;24370;51.986;4.666;2023-06-22T02:50:27;101966.06;;;28.79;41.18
38616;BME280;24370;51.986;4.666;2023-06-22T02:52:52;101972.28;;;28.79;41.17
38616;BME280;24370;51.986;4.666;2023-06-22T02:55:18;101971.03;;;28.98;41.28
38616;BME280;24370;51.986;4.666;2023-06-22T02:57:43;101974.91;;;28.93;40.87
38616;BME280;24370;51.986;4.666;2023-06-22T03:00:10;101981.13;;;28.94;41.11
38616;BME280;24370;51.986;4.666;2023-06-22T03:02:46;101976.94;;;28.90;41.13
38616;BME280;24370;51.986;4.666;2023-06-22T03:05:12;101974.91;;;28.93;40.63
38616;BME280;24370;51.986;4.666;2023-06-22T03:07:42;101985.00;;;28.77;41.44
38616;BME280;24370;51.986;4.666;2023-06-22T03:10:12;101986.94;;;29.01;40.71
38616;BME280;24370;51.986;4.666;2023-06-22T03:12:38;101988.03;;;28.85;40.60
38616;BME280;24370;51.986;4.666;2023-06-22T03:15:08;101975.09;;;29.29;40.03
38616;BME280;24370;51.986;4.666;2023-06-22T03:17:35;101959.38;;;29.10;40.31
38616;BME280;24370;51.986;4.666;2023-06-22T03:20:04;101957.88;;;28.80;41.19
38616;BME280;24370;51.986;4.666;2023-06-22T03:22:40;101952.72;;;28.77;41.23
38616;BME280;24370;51.986;4.666;2023-06-22T03:25:07;101945.41;;;28.79;40.78
38616;BME280;24370;51.986;4.666;2023-06-22T03:27:38;101943.66;;;28.78;41.19
38616;BME280;24370;51.986;4.666;2023-06-22T03:30:05;101942.38;;;28.71;41.46
38616;BME280;24370;51.986;4.666;2023-06-22T03:32:31;101948.22;;;28.65;41.53
38616;BME280;24370;51.986;4.666;2023-06-22T03:34:56;101947.66;;;28.72;41.54
38616;BME280;24370;51.986;4.666;2023-06-22T03:37:27;101945.06;;;28.97;40.69
38616;BME280;24370;51.986;4.666;2023-06-22T03:39:52;101941.00;;;28.65;41.45
38616;BME280;24370;51.986;4.666;2023-06-22T03:42:18;101935.50;;;28.67;41.32
38616;BME280;24370;51.986;4.666;2023-06-22T03:44:43;101941.81;;;28.40;42.34
38616;BME280;24370;51.986;4.666;2023-06-22T03:47:09;101945.16;;;28.56;41.69
38616;BME280;24370;51.986;4.666;2023-06-22T03:49:35;101935.75;;;28.49;41.73
38616;BME280;24370;51.986;4.666;2023-06-22T03:52:01;101933.19;;;28.35;42.14
38616;BME280;24370;51.986;4.666;2023-06-22T03:54:28;101926.97;;;28.47;41.93
38616;BME280;24370;51.986;4.666;2023-06-22T03:56:53;101932.97;;;28.38;42.24
38616;BME280;24370;51.986;4.666;2023-06-22T03:59:19;101933.75;;;29.04;40.72
38616;BME280;24370;51.986;4.666;2023-06-22T04:01:44;101928.72;;;28.74;41.67
38616;BME280;24370;51.986;4.666;2023-06-22T04:04:10;101931.50;;;28.59;41.70
38616;BME280;24370;51.986;4.666;2023-06-22T04:06:35;101929.97;;;28.55;41.76
38616;BME280;24370;51.986;4.666;2023-06-22T04:09:01;101919.13;;;28.44;42.36
38616;BME280;24370;51.986;4.666;2023-06-22T04:11:26;101928.19;;;28.69;41.65
38616;BME280;24370;51.986;4.666;2023-06-22T04:13:52;101921.69;;;28.58;42.20
38616;BME280;24370;51.986;4.666;2023-06-22T04:16:17;101925.81;;;28.64;42.03
38616;BME280;24370;51.986;4.666;2023-06-22T04:18:42;101918.59;;;28.77;41.96
38616;BME280;24370;51.986;4.666;2023-06-22T04:21:10;101917.00;;;28.75;42.18
38616;BME280;24370;51.986;4.666;2023-06-22T04:23:35;101913.88;;;28.68;42.24
38616;BME280;24370;51.986;4.666;2023-06-22T04:26:01;101921.25;;;28.39;43.23
38616;BME280;24370;51.986;4.666;2023-06-22T04:28:26;101926.00;;;28.48;43.31
38616;BME280;24370;51.986;4.666;2023-06-22T04:30:52;101929.66;;;28.47;43.43
38616;BME280;24370;51.986;4.666;2023-06-22T04:33:17;101932.47;;;27.64;45.30
38616;BME280;24370;51.986;4.666;2023-06-22T04:35:45;101937.84;;;27.64;45.61
38616;BME280;24370;51.986;4.666;2023-06-22T04:38:12;101936.91;;;28.19;44.40
38616;BME280;24370;51.986;4.666;2023-06-22T04:40:39;101943.81;;;28.23;44.15
38616;BME280;24370;51.986;4.666;2023-06-22T04:43:04;101942.69;;;28.13;44.86
38616;BME280;24370;51.986;4.666;2023-06-22T04:45:32;101940.00;;;29.31;42.91
38616;BME280;24370;51.986;4.666;2023-06-22T04:47:57;101943.44;;;29.07;42.91
38616;BME280;24370;51.986;4.666;2023-06-22T04:50:23;101940.13;;;29.53;42.13
38616;BME280;24370;51.986;4.666;2023-06-22T04:52:49;101943.56;;;30.28;40.42
38616;BME280;24370;51.986;4.666;2023-06-22T04:55:15;101942.53;;;30.42;40.41
38616;BME280;24370;51.986;4.666;2023-06-22T04:57:47;101947.28;;;31.65;38.21
38616;BME280;24370;51.986;4.666;2023-06-22T05:00:17;101939.63;;;31.58;37.96
38616;BME280;24370;51.986;4.666;2023-06-22T05:02:44;101943.09;;;31.72;37.65
38616;BME280;24370;51.986;4.666;2023-06-22T05:05:11;101941.16;;;31.40;37.68
38616;BME280;24370;51.986;4.666;2023-06-22T05:07:42;101948.75;;;31.69;37.69
38616;BME280;24370;51.986;4.666;2023-06-22T05:10:12;101946.78;;;32.36;37.37
38616;BME280;24370;51.986;4.666;2023-06-22T05:12:38;101936.53;;;32.81;35.45
38616;BME280;24370;51.986;4.666;2023-06-22T05:15:04;101937.75;;;32.14;36.74
38616;BME280;24370;51.986;4.666;2023-06-22T05:17:30;101939.75;;;32.96;35.23
38616;BME280;24370;51.986;4.666;2023-06-22T05:19:55;101939.72;;;34.17;33.45
38616;BME280;24370;51.986;4.666;2023-06-22T05:22:21;101939.84;;;34.45;32.69
38616;BME280;24370;51.986;4.666;2023-06-22T05:24:46;101931.66;;;34.55;32.30
38616;BME280;24370;51.986;4.666;2023-06-22T05:27:12;101939.00;;;34.15;32.84
38616;BME280;24370;51.986;4.666;2023-06-22T05:29:39;101937.50;;;33.52;33.56
38616;BME280;24370;51.986;4.666;2023-06-22T05:32:04;101939.72;;;34.17;32.32
38616;BME280;24370;51.986;4.666;2023-06-22T05:34:30;101942.56;;;33.96;33.25
38616;BME280;24370;51.986;4.666;2023-06-22T05:36:56;101933.13;;;34.10;33.07
38616;BME280;24370;51.986;4.666;2023-06-22T05:39:24;101934.72;;;34.03;32.31
38616;BME280;24370;51.986;4.666;2023-06-22T05:41:49;101930.63;;;32.97;34.21
38616;BME280;24370;51.986;4.666;2023-06-22T05:44:14;101935.69;;;33.72;33.39
38616;BME280;24370;51.986;4.666;2023-06-22T05:46:44;101931.22;;;33.42;33.53
38616;BME280;24370;51.986;4.666;2023-06-22T05:49:14;101938.44;;;33.82;33.33
38616;BME280;24370;51.986;4.666;2023-06-22T05:51:41;101934.25;;;33.68;32.66
38616;BME280;24370;51.986;4.666;2023-06-22T05:54:06;101943.41;;;33.87;33.68
38616;BME280;24370;51.986;4.666;2023-06-22T05:56:34;101934.41;;;34.06;32.81
38616;BME280;24370;51.986;4.666;2023-06-22T05:59:00;101934.28;;;33.78;33.13
38616;BME280;24370;51.986;4.666;2023-06-22T06:01:25;101935.06;;;34.57;31.92
38616;BME280;24370;51.986;4.666;2023-06-22T06:03:51;101936.97;;;32.65;33.95
38616;BME280;24370;51.986;4.666;2023-06-22T06:06:18;101931.78;;;32.74;33.41
38616;BME280;24370;51.986;4.666;2023-06-22T06:08:45;101929.66;;;33.08;33.74
38616;BME280;24370;51.986;4.666;2023-06-22T06:11:10;101934.28;;;33.78;32.04
38616;BME280;24370;51.986;4.666;2023-06-22T06:13:36;101936.34;;;33.35;32.90
38616;BME280;24370;51.986;4.666;2023-06-22T06:16:01;101934.28;;;33.97;32.34
38616;BME280;24370;51.986;4.666;2023-06-22T06:18:27;101934.09;;;33.70;33.11
38616;BME280;24370;51.986;4.666;2023-06-22T06:20:52;101929.44;;;34.01;32.60
38616;BME280;24370;51.986;4.666;2023-06-22T06:23:18;101930.13;;;33.74;32.96
38616;BME280;24370;51.986;4.666;2023-06-22T06:25:43;101935.34;;;33.46;32.99
38616;BME280;24370;51.986;4.666;2023-06-22T06:28:09;101931.16;;;33.92;32.67
38616;BME280;24370;51.986;4.666;2023-06-22T06:30:37;101929.50;;;33.41;33.05
38616;BME280;24370;51.986;4.666;2023-06-22T06:33:03;101924.09;;;33.60;32.86
38616;BME280;24370;51.986;4.666;2023-06-22T06:35:34;101918.56;;;34.30;32.08
38616;BME280;24370;51.986;4.666;2023-06-22T06:38:02;101912.06;;;34.61;31.66
38616;BME280;24370;51.986;4.666;2023-06-22T06:40:28;101912.41;;;33.70;32.51
38616;BME280;24370;51.986;4.666;2023-06-22T06:42:53;101913.03;;;33.93;32.44
38616;BME280;24370;51.986;4.666;2023-06-22T06:45:21;101911.13;;;34.42;32.20
38616;BME280;24370;51.986;4.666;2023-06-22T06:47:52;101911.91;;;35.10;30.47
38616;BME280;24370;51.986;4.666;2023-06-22T06:50:18;101919.16;;;34.72;30.77
38616;BME280;24370;51.986;4.666;2023-06-22T06:52:44;101910.84;;;34.45;30.96
38616;BME280;24370;51.986;4.666;2023-06-22T06:55:10;101922.28;;;35.24;30.47
38616;BME280;24370;51.986;4.666;2023-06-22T06:57:41;101912.59;;;34.17;32.59
38616;BME280;24370;51.986;4.666;2023-06-22T07:00:11;101915.09;;;35.51;30.49
38616;BME280;24370;51.986;4.666;2023-06-22T07:02:45;101918.38;;;35.73;30.05
38616;BME280;24370;51.986;4.666;2023-06-22T07:05:12;101902.94;;;35.91;28.87
38616;BME280;24370;51.986;4.666;2023-06-22T07:07:39;101901.63;;;36.40;28.20
38616;BME280;24370;51.986;4.666;2023-06-22T07:10:07;101894.53;;;36.47;27.49
38616;BME280;24370;51.986;4.666;2023-06-22T07:12:32;101898.00;;;36.65;27.80
38616;BME280;24370;51.986;4.666;2023-06-22T07:15:16;101904.38;;;37.17;26.92
38616;BME280;24370;51.986;4.666;2023-06-22T07:17:41;101897.00;;;38.43;25.16
38616;BME280;24370;51.986;4.666;2023-06-22T07:20:07;101889.09;;;38.73;24.40
38616;BME280;24370;51.986;4.666;2023-06-22T07:22:44;101880.66;;;40.15;24.43
38616;BME280;24370;51.986;4.666;2023-06-22T07:25:10;101888.41;;;39.65;23.87
38616;BME280;24370;51.986;4.666;2023-06-22T07:27:45;101886.75;;;39.79;22.84
38616;BME280;24370;51.986;4.666;2023-06-22T07:30:12;101890.75;;;38.82;23.56
38616;BME280;24370;51.986;4.666;2023-06-22T07:32:37;101884.59;;;38.80;23.06
38616;BME280;24370;51.986;4.666;2023-06-22T07:35:03;101885.69;;;37.22;24.31
38616;BME280;24370;51.986;4.666;2023-06-22T07:37:29;101890.66;;;40.37;21.83
38616;BME280;24370;51.986;4.666;2023-06-22T07:39:57;101886.16;;;41.26;21.27
38616;BME280;24370;51.986;4.666;2023-06-22T07:42:26;101881.03;;;41.38;19.28
38616;BME280;24370;51.986;4.666;2023-06-22T07:44:52;101875.84;;;40.77;20.07
38616;BME280;24370;51.986;4.666;2023-06-22T07:47:18;101882.00;;;38.22;22.41
38616;BME280;24370;51.986;4.666;2023-06-22T07:49:45;101878.06;;;39.98;21.20
38616;BME280;24370;51.986;4.666;2023-06-22T07:52:10;101883.19;;;38.92;21.33
38616;BME280;24370;51.986;4.666;2023-06-22T07:54:36;101879.63;;;39.23;22.33
38616;BME280;24370;51.986;4.666;2023-06-22T07:57:02;101868.47;;;39.01;22.90
38616;BME280;24370;51.986;4.666;2023-06-22T07:59:27;101867.19;;;39.90;22.02
38616;BME280;24370;51.986;4.666;2023-06-22T08:01:53;101859.56;;;38.68;23.64
38616;BME280;24370;51.986;4.666;2023-06-22T08:04:18;101861.25;;;37.63;25.44
38616;BME280;24370;51.986;4.666;2023-06-22T08:06:44;101860.50;;;39.23;23.70
38616;BME280;24370;51.986;4.666;2023-06-22T08:09:09;101859.00;;;39.44;23.84
38616;BME280;24370;51.986;4.666;2023-06-22T08:11:37;101854.69;;;40.11;23.14
38616;BME280;24370;51.986;4.666;2023-06-22T08:14:03;101846.44;;;40.85;22.69
38616;BME280;24370;51.986;4.666;2023-06-22T08:16:28;101850.06;;;38.95;24.78
38616;BME280;24370;51.986;4.666;2023-06-22T08:18:54;101843.13;;;40.00;24.62
38616;BME280;24370;51.986;4.666;2023-06-22T08:21:19;101839.94;;;41.01;23.44
38616;BME280;24370;51.986;4.666;2023-06-22T08:23:45;101850.28;;;39.17;25.59
38616;BME280;24370;51.986;4.666;2023-06-22T08:26:10;101854.63;;;41.37;23.41
38616;BME280;24370;51.986;4.666;2023-06-22T08:28:36;101845.53;;;40.93;22.86
38616;BME280;24370;51.986;4.666;2023-06-22T08:31:02;101847.56;;;39.63;24.87
38616;BME280;24370;51.986;4.666;2023-06-22T08:33:28;101850.34;;;41.78;22.91
38616;BME280;24370;51.986;4.666;2023-06-22T08:35:54;101828.16;;;40.41;24.71
38616;BME280;24370;51.986;4.666;2023-06-22T08:38:22;101837.09;;;42.10;22.75
38616;BME280;24370;51.986;4.666;2023-06-22T08:40:47;101836.88;;;42.04;22.16
38616;BME280;24370;51.986;4.666;2023-06-22T08:43:13;101833.25;;;39.07;25.71
38616;BME280;24370;51.986;4.666;2023-06-22T08:45:39;101830.81;;;41.59;23.40
38616;BME280;24370;51.986;4.666;2023-06-22T08:48:04;101831.72;;;41.45;23.69
38616;BME280;24370;51.986;4.666;2023-06-22T08:50:30;101828.78;;;39.98;24.66
38616;BME280;24370;51.986;4.666;2023-06-22T08:52:55;101836.56;;;38.54;26.44
38616;BME280;24370;51.986;4.666;2023-06-22T08:55:21;101833.34;;;38.90;26.50
38616;BME280;24370;51.986;4.666;2023-06-22T08:57:46;101828.19;;;37.83;26.99
38616;BME280;24370;51.986;4.666;2023-06-22T09:00:12;101830.88;;;37.42;28.21
38616;BME280;24370;51.986;4.666;2023-06-22T09:02:42;101822.72;;;37.99;27.00
38616;BME280;24370;51.986;4.666;2023-06-22T09:05:08;101812.53;;;36.24;29.78
38616;BME280;24370;51.986;4.666;2023-06-22T09:07:33;101815.91;;;36.17;30.01
38616;BME280;24370;51.986;4.666;2023-06-22T09:10:00;101817.69;;;38.19;27.55
38616;BME280;24370;51.986;4.666;2023-06-22T09:12:25;101810.75;;;38.09;27.38
38616;BME280;24370;51.986;4.666;2023-06-22T09:14:52;101821.03;;;37.82;27.10
38616;BME280;24370;51.986;4.666;2023-06-22T09:17:18;101816.13;;;36.93;28.09
38616;BME280;24370;51.986;4.666;2023-06-22T09:19:43;101805.34;;;37.43;27.84
38616;BME280;24370;51.986;4.666;2023-06-22T09:22:09;101810.38;;;36.27;28.49
38616;BME280;24370;51.986;4.666;2023-06-22T09:24:36;101818.63;;;37.62;26.88
38616;BME280;24370;51.986;4.666;2023-06-22T09:27:02;101821.19;;;36.80;27.68
38616;BME280;24370;51.986;4.666;2023-06-22T09:29:27;101819.91;;;38.41;25.46
38616;BME280;24370;51.986;4.666;2023-06-22T09:31:53;101811.09;;;36.72;27.76
38616;BME280;24370;51.986;4.666;2023-06-22T09:34:21;101817.63;;;37.80;26.00
38616;BME280;24370;51.986;4.666;2023-06-22T09:36:47;101816.94;;;35.54;28.87
38616;BME280;24370;51.986;4.666;2023-06-22T09:39:12;101806.00;;;37.45;26.81
38616;BME280;24370;51.986;4.666;2023-06-22T09:41:37;101803.28;;;37.37;26.58
38616;BME280;24370;51.986;4.666;2023-06-22T09:44:03;101809.72;;;36.33;27.52
38616;BME280;24370;51.986;4.666;2023-06-22T09:46:29;101808.38;;;36.38;26.94
38616;BME280;24370;51.986;4.666;2023-06-22T09:48:54;101808.13;;;37.08;26.32
38616;BME280;24370;51.986;4.666;2023-06-22T09:51:20;101796.81;;;37.71;25.24
38616;BME280;24370;51.986;4.666;2023-06-22T09:53:47;101796.47;;;37.57;26.36
38616;BME280;24370;51.986;4.666;2023-06-22T09:56:12;101793.06;;;37.72;26.46
38616;BME280;24370;51.986;4.666;2023-06-22T09:58:41;101789.28;;;37.73;26.09
38616;BME280;24370;51.986;4.666;2023-06-22T10:01:07;101789.22;;;36.90;26.65
38616;BME280;24370;51.986;4.666;2023-06-22T10:03:33;101792.63;;;36.92;25.91
38616;BME280;24370;51.986;4.666;2023-06-22T10:05:58;101787.00;;;36.86;26.74
38616;BME280;24370;51.986;4.666;2023-06-22T10:08:24;101790.97;;;38.07;25.43
38616;BME280;24370;51.986;4.666;2023-06-22T10:10:49;101789.78;;;37.10;26.99
38616;BME280;24370;51.986;4.666;2023-06-22T10:13:14;101794.56;;;36.74;27.33
38616;BME280;24370;51.986;4.666;2023-06-22T10:15:41;101788.94;;;37.10;28.17
38616;BME280;24370;51.986;4.666;2023-06-22T10:18:06;101786.22;;;35.80;28.18
38616;BME280;24370;51.986;4.666;2023-06-22T10:20:32;101794.47;;;36.14;27.47
38616;BME280;24370;51.986;4.666;2023-06-22T10:22:58;101799.06;;;36.83;27.60
38616;BME280;24370;51.986;4.666;2023-06-22T10:25:23;101797.53;;;36.46;28.14
38616;BME280;24370;51.986;4.666;2023-06-22T10:27:49;101798.94;;;37.01;27.17
38616;BME280;24370;51.986;4.666;2023-06-22T10:30:14;101800.78;;;36.84;26.57
38616;BME280;24370;51.986;4.666;2023-06-22T10:32:41;101795.00;;;36.18;27.59
38616;BME280;24370;51.986;4.666;2023-06-22T10:35:08;101793.63;;;36.83;27.29
38616;BME280;24370;51.986;4.666;2023-06-22T10:37:36;101805.97;;;37.20;27.00
38616;BME280;24370;51.986;4.666;2023-06-22T10:40:02;101800.81;;;35.97;27.81
38616;BME280;24370;51.986;4.666;2023-06-22T10:42:28;101804.50;;;36.14;27.73
38616;BME280;24370;51.986;4.666;2023-06-22T10:44:54;101799.38;;;36.11;27.12
38616;BME280;24370;51.986;4.666;2023-06-22T10:47:19;101797.59;;;37.22;26.84
38616;BME280;24370;51.986;4.666;2023-06-22T10:49:44;101805.28;;;36.67;27.33
38616;BME280;24370;51.986;4.666;2023-06-22T10:52:10;101810.56;;;36.34;27.77
38616;BME280;24370;51.986;4.666;2023-06-22T10:54:37;101814.31;;;36.07;29.60
38616;BME280;24370;51.986;4.666;2023-06-22T10:57:02;101814.06;;;35.74;28.72
38616;BME280;24370;51.986;4.666;2023-06-22T10:59:28;101815.19;;;36.33;28.61
38616;BME280;24370;51.986;4.666;2023-06-22T11:01:58;101816.22;;;35.16;29.14
38616;BME280;24370;51.986;4.666;2023-06-22T11:04:24;101801.63;;;35.89;28.65
38616;BME280;24370;51.986;4.666;2023-06-22T11:06:49;101803.03;;;33.51;32.14
38616;BME280;24370;51.986;4.666;2023-06-22T11:09:16;101805.28;;;35.62;30.13
38616;BME280;24370;51.986;4.666;2023-06-22T11:11:49;101807.75;;;36.44;29.99
38616;BME280;24370;51.986;4.666;2023-06-22T11:14:14;101811.47;;;34.35;32.06
38616;BME280;24370;51.986;4.666;2023-06-22T11:16:40;101805.00;;;34.83;31.79
38616;BME280;24370;51.986;4.666;2023-06-22T11:19:05;101800.13;;;35.32;31.30
38616;BME280;24370;51.986;4.666;2023-06-22T11:21:31;101801.03;;;36.04;30.46
38616;BME280;24370;51.986;4.666;2023-06-22T11:23:58;101793.72;;;35.42;30.86
38616;BME280;24370;51.986;4.666;2023-06-22T11:26:24;101793.03;;;36.02;30.51
38616;BME280;24370;51.986;4.666;2023-06-22T11:28:50;101798.00;;;36.07;30.24
38616;BME280;24370;51.986;4.666;2023-06-22T11:31:15;101788.81;;;36.08;30.45
38616;BME280;24370;51.986;4.666;2023-06-22T11:33:41;101795.31;;;33.76;34.16
38616;BME280;24370;51.986;4.666;2023-06-22T11:36:06;101789.59;;;34.74;32.26
38616;BME280;24370;51.986;4.666;2023-06-22T11:38:32;101777.66;;;35.93;30.76
38616;BME280;24370;51.986;4.666;2023-06-22T11:40:58;101778.81;;;35.82;30.22
38616;BME280;24370;51.986;4.666;2023-06-22T11:43:24;101779.19;;;34.41;32.91
38616;BME280;24370;51.986;4.666;2023-06-22T11:45:49;101761.91;;;35.78;30.92
38616;BME280;24370;51.986;4.666;2023-06-22T11:48:15;101763.16;;;35.04;32.14
38616;BME280;24370;51.986;4.666;2023-06-22T11:50:41;101761.06;;;35.33;32.84
38616;BME280;24370;51.986;4.666;2023-06-22T11:53:06;101765.78;;;34.95;33.78
38616;BME280;24370;51.986;4.666;2023-06-22T11:55:32;101761.06;;;32.96;36.55
38616;BME280;24370;51.986;4.666;2023-06-22T11:57:57;101754.34;;;32.50;38.14
38616;BME280;24370;51.986;4.666;2023-06-22T12:00:29;101751.97;;;32.57;38.86
38616;BME280;24370;51.986;4.666;2023-06-22T12:02:55;101743.72;;;33.28;38.33
38616;BME280;24370;51.986;4.666;2023-06-22T12:05:21;101740.44;;;33.54;38.03
38616;BME280;24370;51.986;4.666;2023-06-22T12:07:48;101740.69;;;32.52;40.14
38616;BME280;24370;51.986;4.666;2023-06-22T12:10:13;101742.66;;;32.40;40.97
38616;BME280;24370;51.986;4.666;2023-06-22T12:12:39;101738.06;;;32.30;41.08
38616;BME280;24370;51.986;4.666;2023-06-22T12:15:04;101735.25;;;32.11;42.13
38616;BME280;24370;51.986;4.666;2023-06-22T12:17:30;101732.53;;;32.42;41.34
38616;BME280;24370;51.986;4.666;2023-06-22T12:19:56;101735.69;;;32.47;40.93
38616;BME280;24370;51.986;4.666;2023-06-22T12:22:21;101735.91;;;32.65;41.71
38616;BME280;24370;51.986;4.666;2023-06-22T12:24:47;101732.44;;;31.91;41.95
38616;BME280;24370;51.986;4.666;2023-06-22T12:27:12;101726.44;;;33.10;40.35
38616;BME280;24370;51.986;4.666;2023-06-22T12:29:38;101728.81;;;33.91;38.84
38616;BME280;24370;51.986;4.666;2023-06-22T12:32:04;101723.44;;;33.81;39.97
38616;BME280;24370;51.986;4.666;2023-06-22T12:34:29;101717.59;;;33.08;41.42
38616;BME280;24370;51.986;4.666;2023-06-22T12:36:54;101713.66;;;33.98;39.20
38616;BME280;24370;51.986;4.666;2023-06-22T12:39:20;101723.69;;;33.69;39.54
38616;BME280;24370;51.986;4.666;2023-06-22T12:41:45;101714.38;;;34.38;38.84
38616;BME280;24370;51.986;4.666;2023-06-22T12:44:11;101719.16;;;34.54;37.70
38616;BME280;24370;51.986;4.666;2023-06-22T12:46:36;101719.69;;;33.92;39.40
38616;BME280;24370;51.986;4.666;2023-06-22T12:49:04;101716.00;;;33.74;39.47
38616;BME280;24370;51.986;4.666;2023-06-22T12:51:29;101717.56;;;34.34;38.69
38616;BME280;24370;51.986;4.666;2023-06-22T12:53:55;101719.84;;;32.83;40.25